Time;durP1;ratioP1;P1;durP2;ratioP2;P2;SDS_P1;SDS_P2;PMS_P1;PMS_P2;Temp;Humidity;BMP_temperature;BMP_pressure;BME280_temperature;BME280_humidity;BME280_pressure;Samples;Min_cycle;Max_cycle;Signal;HPM_P1;HPM_P2
2023/03/18 00:00:31;;;;;;;7.43;2.45;;;;;;;19.33;43.87;100690.38;5034133;28;20029;-69
2023/03/18 00:02:57;;;;;;;4.25;2.10;;;;;;;19.31;43.91;100691.47;5024962;28;20033;-70
2023/03/18 00:05:22;;;;;;;5.45;2.30;;;;;;;19.31;43.95;100694.97;5034254;28;20041;-70
2023/03/18 00:07:49;;;;;;;4.97;2.15;;;;;;;19.30;44.13;100698.56;5034414;28;20041;-70
2023/03/18 00:10:15;;;;;;;6.30;2.28;;;;;;;19.32;43.98;100703.72;5034523;28;20061;-69
2023/03/18 00:12:42;;;;;;;5.35;2.40;;;;;;;19.31;44.09;100702.03;5034292;28;20033;-69
2023/03/18 00:15:11;;;;;;;4.75;2.40;;;;;;;19.28;43.90;100697.03;5033878;28;20043;-69
2023/03/18 00:17:38;;;;;;;4.85;2.25;;;;;;;19.30;44.27;100703.03;5034095;28;20033;-68
2023/03/18 00:20:05;;;;;;;5.72;2.17;;;;;;;19.30;43.95;100708.31;5033282;28;20059;-69
2023/03/18 00:22:36;;;;;;;4.53;2.20;;;;;;;19.27;43.88;100706.75;5033488;28;20477;-72
2023/03/18 00:25:02;;;;;;;4.78;2.35;;;;;;;19.26;43.91;100701.63;5034073;28;20033;-68
2023/03/18 00:27:29;;;;;;;5.38;2.53;;;;;;;19.25;44.09;100710.50;5033848;28;20030;-68
2023/03/18 00:29:54;;;;;;;6.45;2.47;;;;;;;19.27;43.97;100714.69;5034411;28;20064;-69
2023/03/18 00:32:20;;;;;;;5.15;2.00;;;;;;;19.25;44.13;100719.28;5033490;28;20457;-69
2023/03/18 00:34:45;;;;;;;5.40;2.25;;;;;;;19.25;43.92;100715.78;5033789;28;20025;-69
2023/03/18 00:37:17;;;;;;;5.55;2.20;;;;;;;19.23;43.98;100715.09;5033641;28;20029;-69
2023/03/18 00:39:44;;;;;;;4.80;2.20;;;;;;;19.22;43.90;100719.56;5033898;28;20040;-69
2023/03/18 00:42:11;;;;;;;5.60;2.45;;;;;;;19.22;44.07;100719.56;5034341;28;20039;-69
2023/03/18 00:44:38;;;;;;;4.53;2.13;;;;;;;19.21;43.97;100729.25;5033279;28;20157;-68
2023/03/18 00:47:04;;;;;;;5.75;2.60;;;;;;;19.19;43.92;100725.09;5034123;28;20419;-69
2023/03/18 00:49:30;;;;;;;4.38;2.10;;;;;;;19.20;44.11;100730.25;5035535;28;20178;-69
2023/03/18 00:51:55;;;;;;;5.57;2.30;;;;;;;19.18;43.85;100732.19;5033079;28;20071;-68
2023/03/18 00:54:21;;;;;;;5.53;2.25;;;;;;;19.20;44.26;100745.25;5033647;28;20032;-72
2023/03/18 00:56:46;;;;;;;5.38;2.28;;;;;;;19.20;44.00;100742.59;5033619;28;20425;-69
2023/03/18 00:59:12;;;;;;;5.07;2.42;;;;;;;19.17;43.89;100730.50;5033432;28;20033;-70
2023/03/18 01:01:38;;;;;;;4.55;2.38;;;;;;;19.17;43.90;100734.97;5033179;28;20074;-71
2023/03/18 01:04:05;;;;;;;7.28;2.58;;;;;;;19.18;43.95;100736.63;5033357;28;20037;-70
2023/03/18 01:06:33;;;;;;;6.55;2.72;;;;;;;19.16;43.93;100735.94;5032820;28;20104;-70
2023/03/18 01:09:00;;;;;;;6.75;2.50;;;;;;;19.15;44.01;100727.19;5033110;28;20037;-70
2023/03/18 01:11:27;;;;;;;6.63;2.75;;;;;;;19.13;43.99;100726.47;5032747;28;20064;-70
2023/03/18 01:13:53;;;;;;;6.18;2.60;;;;;;;19.15;43.89;100727.19;5033260;28;20037;-68
2023/03/18 01:16:20;;;;;;;5.03;2.40;;;;;;;19.13;43.88;100728.28;5032591;28;20040;-69
2023/03/18 01:18:46;;;;;;;4.35;2.25;;;;;;;19.10;43.91;100721.44;5033079;28;20073;-69
2023/03/18 01:21:12;;;;;;;4.32;2.38;;;;;;;19.12;43.90;100721.31;5032941;28;20037;-70
2023/03/18 01:23:39;;;;;;;4.80;2.33;;;;;;;19.12;43.85;100722.16;5032476;28;20033;-70
2023/03/18 01:26:05;;;;;;;5.38;2.40;;;;;;;19.10;44.04;100720.63;5032642;28;20150;-71
2023/03/18 01:28:31;;;;;;;5.10;2.58;;;;;;;19.12;43.92;100726.59;5033014;28;20033;-71
2023/03/18 01:30:57;;;;;;;5.88;2.55;;;;;;;19.08;43.98;100725.22;5032488;28;20366;-69
2023/03/18 01:33:24;;;;;;;6.03;2.75;;;;;;;19.08;44.01;100733.94;5033056;28;20029;-68
2023/03/18 01:35:59;;;;;;;6.65;2.67;;;;;;;19.07;44.21;100724.34;5031340;28;20040;-68
2023/03/18 01:38:26;;;;;;;7.80;2.70;;;;;;;19.09;44.19;100721.56;5033118;28;20033;-69
2023/03/18 01:40:53;;;;;;;7.07;2.60;;;;;;;19.07;44.21;100715.59;5032660;28;20116;-69
2023/03/18 01:43:22;;;;;;;5.15;2.50;;;;;;;19.08;44.25;100723.38;5032175;28;20036;-70
2023/03/18 01:45:55;;;;;;;5.88;2.80;;;;;;;19.07;44.30;100719.06;5032053;28;20036;-69
2023/03/18 01:48:24;;;;;;;6.60;2.78;;;;;;;19.05;44.37;100718.38;5032717;28;20044;-68
2023/03/18 01:50:55;;;;;;;6.60;2.58;;;;;;;19.04;44.45;100719.34;5032334;28;20478;-69
2023/03/18 01:53:22;;;;;;;6.10;2.90;;;;;;;19.06;44.42;100720.06;5032529;28;20128;-70
2023/03/18 01:55:49;;;;;;;7.53;2.90;;;;;;;19.06;44.55;100720.06;5031504;28;20618;-71
2023/03/18 01:58:20;;;;;;;7.63;3.28;;;;;;;19.04;44.60;100721.97;5032415;28;21322;-70
2023/03/18 02:00:52;;;;;;;7.13;2.60;;;;;;;19.02;44.54;100724.75;5032088;28;20079;-70
2023/03/18 02:03:18;;;;;;;6.07;2.83;;;;;;;19.03;44.59;100717.69;5022718;28;20695;-70
2023/03/18 02:05:44;;;;;;;7.40;3.15;;;;;;;19.03;44.64;100722.97;5031898;28;20037;-69
2023/03/18 02:08:10;;;;;;;6.53;2.95;;;;;;;19.04;44.48;100724.63;5031986;28;20033;-70
2023/03/18 02:10:37;;;;;;;6.05;2.70;;;;;;;19.02;44.74;100718.63;5031911;28;20029;-70
2023/03/18 02:13:08;;;;;;;6.32;2.60;;;;;;;19.02;44.88;100721.28;5031909;28;20036;-69
2023/03/18 02:15:41;;;;;;;5.95;3.00;;;;;;;19.02;44.85;100726.56;5031177;28;20398;-70
2023/03/18 02:18:11;;;;;;;5.82;2.83;;;;;;;19.02;44.68;100730.03;5031506;28;20068;-69
2023/03/18 02:21:01;;;;;;;9.07;3.05;;;;;;;19.02;44.88;100731.84;5031287;28;20068;-69
2023/03/18 02:23:51;;;;;;;6.43;3.00;;;;;;;18.98;44.87;100726.00;5031115;28;20044;-70
2023/03/18 02:26:39;;;;;;;7.28;2.80;;;;;;;18.97;44.92;100723.50;5031866;28;20040;-69
2023/03/18 02:29:06;;;;;;;5.05;2.80;;;;;;;19.00;45.13;100734.63;5031968;28;20049;-69
2023/03/18 02:31:34;;;;;;;6.25;2.78;;;;;;;18.98;44.89;100739.19;5032064;28;20044;-69
2023/03/18 02:34:01;;;;;;;5.85;2.95;;;;;;;18.97;44.89;100742.81;5031380;28;20421;-70
2023/03/18 02:36:28;;;;;;;7.50;3.08;;;;;;;18.97;45.02;100741.97;5031248;28;20078;-68
2023/03/18 02:38:55;;;;;;;6.57;2.70;;;;;;;18.99;45.00;100747.94;5031431;28;20572;-68
2023/03/18 02:41:23;;;;;;;5.60;3.30;;;;;;;18.95;45.12;100742.09;5031524;28;20060;-69
2023/03/18 02:43:50;;;;;;;8.73;3.15;;;;;;;18.95;44.85;100747.38;5031466;28;20374;-69
2023/03/18 02:46:37;;;;;;;7.57;2.88;;;;;;;18.95;45.13;100742.09;5031498;28;20064;-69
2023/03/18 02:49:05;;;;;;;6.25;3.08;;;;;;;18.97;45.12;100747.25;5031396;28;20028;-69
2023/03/18 02:51:31;;;;;;;5.32;2.83;;;;;;;18.94;45.07;100747.53;5031429;28;20072;-69
2023/03/18 02:54:01;;;;;;;5.95;2.97;;;;;;;18.92;45.12;100752.09;5031030;28;20072;-70
2023/03/18 02:56:27;;;;;;;6.25;3.00;;;;;;;18.89;45.08;100747.91;5030998;28;20504;-70
2023/03/18 02:58:52;;;;;;;5.55;3.33;;;;;;;18.95;45.15;100757.94;5030438;28;20025;-70
2023/03/18 03:01:18;;;;;;;6.70;2.85;;;;;;;18.94;45.19;100760.72;5031069;28;20029;-69
2023/03/18 03:03:43;;;;;;;6.00;3.08;;;;;;;18.93;45.27;100762.53;5030873;28;20473;-69
2023/03/18 03:06:09;;;;;;;7.03;2.97;;;;;;;18.92;45.19;100771.41;5031301;28;20033;-69
2023/03/18 03:08:36;;;;;;;6.57;3.22;;;;;;;18.91;45.10;100772.38;5031420;28;20128;-70
2023/03/18 03:11:01;;;;;;;5.93;3.13;;;;;;;18.91;45.29;100780.28;5031559;28;20040;-70
2023/03/18 03:13:27;;;;;;;5.50;3.35;;;;;;;18.91;45.40;100780.28;5031473;28;20044;-69
2023/03/18 03:15:53;;;;;;;5.80;3.22;;;;;;;18.90;45.35;100773.38;5030255;28;20033;-67
2023/03/18 03:18:18;;;;;;;5.40;3.00;;;;;;;18.89;45.23;100771.69;5030799;28;20056;-70
2023/03/18 03:20:44;;;;;;;5.95;3.60;;;;;;;18.91;45.40;100775.00;5031489;28;20437;-70
2023/03/18 03:23:13;;;;;;;7.25;3.47;;;;;;;18.92;45.24;100773.22;5030884;28;20039;-70
2023/03/18 03:25:38;;;;;;;7.55;3.03;;;;;;;18.88;45.34;100777.09;5030651;28;20107;-68
2023/03/18 03:28:06;;;;;;;5.95;3.00;;;;;;;18.89;45.43;100782.25;5029937;28;20136;-69
2023/03/18 03:30:32;;;;;;;6.07;3.42;;;;;;;18.89;45.58;100773.50;5030707;28;20148;-69
2023/03/18 03:32:58;;;;;;;6.88;3.17;;;;;;;18.89;45.22;100778.78;5032043;28;20044;-68
2023/03/18 03:35:25;;;;;;;5.32;2.97;;;;;;;18.87;45.41;100780.69;5034670;28;20033;-69
2023/03/18 03:37:50;;;;;;;6.55;3.20;;;;;;;18.88;45.46;100777.91;5034718;28;20041;-70
2023/03/18 03:40:17;;;;;;;5.72;3.30;;;;;;;18.87;45.42;100772.75;5025279;28;20386;-69
2023/03/18 03:42:44;;;;;;;6.22;3.20;;;;;;;18.83;45.31;100773.03;5035409;28;20024;-70
2023/03/18 03:45:11;;;;;;;6.15;3.42;;;;;;;18.89;45.42;100784.06;5034547;28;20170;-70
2023/03/18 03:47:37;;;;;;;6.68;3.03;;;;;;;18.84;45.42;100777.34;5034539;28;20032;-69
2023/03/18 03:50:04;;;;;;;5.57;2.95;;;;;;;18.87;45.50;100786.81;5034837;28;20038;-70
2023/03/18 03:52:30;;;;;;;5.13;3.00;;;;;;;18.86;45.34;100790.41;5034362;28;20087;-70
2023/03/18 03:54:55;;;;;;;6.40;3.67;;;;;;;18.85;45.93;100786.13;5034845;28;20037;-69
2023/03/18 03:57:23;;;;;;;8.13;3.67;;;;;;;18.83;45.52;100791.50;5034001;28;20040;-69
2023/03/18 03:59:49;;;;;;;6.35;3.20;;;;;;;18.85;45.36;100791.41;5034085;28;20028;-70
2023/03/18 04:02:16;;;;;;;5.55;3.20;;;;;;;18.84;45.47;100787.91;5033813;28;20032;-70
2023/03/18 04:04:42;;;;;;;6.10;3.20;;;;;;;18.85;45.57;100788.78;5034613;28;20048;-69
2023/03/18 04:07:07;;;;;;;6.82;3.30;;;;;;;18.81;45.58;100793.41;5034522;28;20445;-69
2023/03/18 04:09:34;;;;;;;7.22;3.33;;;;;;;18.82;45.62;100792.47;5034448;28;20033;-71
2023/03/18 04:12:01;;;;;;;5.78;3.38;;;;;;;18.83;45.60;100798.56;5034124;28;20029;-70
2023/03/18 04:14:26;;;;;;;7.00;3.53;;;;;;;18.83;45.65;100806.50;5033742;28;20538;-69
2023/03/18 04:16:51;;;;;;;6.07;3.05;;;;;;;18.81;45.48;100803.16;5033652;28;20147;-69
2023/03/18 04:19:17;;;;;;;5.10;3.20;;;;;;;18.83;45.81;100798.56;5033949;28;20049;-69
2023/03/18 04:21:43;;;;;;;6.57;3.17;;;;;;;18.83;45.57;100796.78;5033926;28;20080;-69
2023/03/18 04:24:09;;;;;;;6.85;3.00;;;;;;;18.76;45.63;100784.22;5034523;28;20401;-69
2023/03/18 04:26:35;;;;;;;6.03;3.42;;;;;;;18.79;45.63;100794.53;5034022;28;20374;-70
2023/03/18 04:29:00;;;;;;;7.40;3.53;;;;;;;18.79;45.62;100799.81;5033786;28;20048;-70
2023/03/18 04:31:25;;;;;;;6.90;3.40;;;;;;;18.81;45.62;100803.16;5033782;28;20037;-70
2023/03/18 04:33:51;;;;;;;6.05;3.22;;;;;;;18.79;45.95;100798.00;5034332;28;20037;-69
2023/03/18 04:36:16;;;;;;;5.90;2.92;;;;;;;18.78;45.60;100798.97;5033523;28;20781;-69
2023/03/18 04:38:41;;;;;;;6.65;3.55;;;;;;;18.78;45.78;100801.59;5033685;28;20025;-69
2023/03/18 04:41:07;;;;;;;6.75;3.30;;;;;;;18.80;45.62;100804.09;5033739;28;20052;-70
2023/03/18 04:43:33;;;;;;;7.18;3.30;;;;;;;18.79;45.66;100810.38;5033605;28;20082;-71
2023/03/18 04:45:58;;;;;;;5.85;2.88;;;;;;;18.78;45.78;100821.91;5032567;28;20044;-71
2023/03/18 04:48:24;;;;;;;6.45;3.08;;;;;;;18.79;45.71;100829.69;5024059;28;20024;-71
2023/03/18 04:50:49;;;;;;;6.82;3.05;;;;;;;18.77;45.83;100814.94;5033516;28;20393;-71
2023/03/18 04:53:15;;;;;;;6.03;3.00;;;;;;;18.75;45.73;100815.06;5033567;28;20036;-69
2023/03/18 04:55:42;;;;;;;8.38;3.17;;;;;;;18.78;45.75;100830.63;5032715;28;20045;-69
2023/03/18 04:58:08;;;;;;;6.15;3.28;;;;;;;18.76;45.83;100823.84;5033134;28;20041;-69
2023/03/18 05:00:33;;;;;;;6.32;3.10;;;;;;;18.78;45.68;100835.91;5032544;28;20087;-70
2023/03/18 05:03:00;;;;;;;6.40;3.20;;;;;;;18.76;45.67;100832.59;5033730;28;20067;-69
2023/03/18 05:05:25;;;;;;;6.47;3.38;;;;;;;18.76;45.91;100843.16;5032710;28;20489;-69
2023/03/18 05:07:51;;;;;;;6.00;3.50;;;;;;;18.74;45.87;100825.75;5032484;28;20112;-71
2023/03/18 05:10:17;;;;;;;6.65;3.08;;;;;;;18.75;45.79;100840.63;5033142;28;20033;-70
2023/03/18 05:12:43;;;;;;;5.35;3.17;;;;;;;18.73;45.79;100843.41;5033274;28;20039;-69
2023/03/18 05:15:08;;;;;;;6.25;3.30;;;;;;;18.74;45.91;100838.94;5032957;28;20397;-69
2023/03/18 05:17:34;;;;;;;7.30;3.35;;;;;;;18.76;45.93;100837.88;5032878;28;20110;-69
2023/03/18 05:19:59;;;;;;;5.82;2.90;;;;;;;18.73;45.96;100832.00;5032854;28;20053;-70
2023/03/18 05:22:25;;;;;;;5.32;3.03;;;;;;;18.74;45.90;100818.69;5033372;28;20481;-70
2023/03/18 05:24:50;;;;;;;6.40;3.50;;;;;;;18.75;46.01;100824.78;5033555;28;20025;-70
2023/03/18 05:27:17;;;;;;;6.30;3.28;;;;;;;18.75;45.96;100822.97;5032496;28;20036;-69
2023/03/18 05:29:43;;;;;;;5.68;3.33;;;;;;;18.72;45.80;100820.59;5032688;28;20029;-69
2023/03/18 05:32:10;;;;;;;6.32;3.60;;;;;;;18.71;45.89;100818.09;5032800;28;20091;-69
2023/03/18 05:34:37;;;;;;;6.65;2.95;;;;;;;18.72;45.93;100827.69;5033311;28;20110;-69
2023/03/18 05:37:07;;;;;;;5.45;3.20;;;;;;;18.71;46.01;100808.38;5032966;28;20522;-69
2023/03/18 05:39:33;;;;;;;5.13;3.00;;;;;;;18.73;45.99;100808.25;5032939;28;20033;-69
2023/03/18 05:41:59;;;;;;;5.53;3.10;;;;;;;18.70;45.92;100822.53;5032291;28;20041;-68
2023/03/18 05:44:25;;;;;;;5.20;2.80;;;;;;;18.69;45.84;100826.13;5032021;28;20136;-70
2023/03/18 05:46:51;;;;;;;4.97;2.65;;;;;;;18.68;45.89;100830.59;5022853;28;20492;-69
2023/03/18 05:49:20;;;;;;;6.10;2.63;;;;;;;18.67;45.87;100850.03;5032777;28;20029;-69
2023/03/18 05:51:46;;;;;;;5.50;3.20;;;;;;;18.70;45.78;100846.28;5032837;28;20041;-70
2023/03/18 05:54:12;;;;;;;5.95;3.15;;;;;;;18.68;45.69;100850.88;5032094;28;20056;-69
2023/03/18 05:56:38;;;;;;;6.40;2.90;;;;;;;18.70;45.83;100851.56;5031290;28;20801;-69
2023/03/18 05:59:04;;;;;;;6.25;3.00;;;;;;;18.71;45.92;100860.31;5031716;28;20035;-69
2023/03/18 06:01:31;;;;;;;7.65;2.88;;;;;;;18.71;45.81;100862.97;5032175;28;20090;-68
2023/03/18 06:03:57;;;;;;;5.97;2.75;;;;;;;18.71;45.75;100862.97;5031916;28;20033;-69
2023/03/18 06:06:23;;;;;;;5.30;2.85;;;;;;;18.72;45.78;100872.56;5031917;28;20048;-69
2023/03/18 06:08:48;;;;;;;5.65;2.90;;;;;;;18.69;45.82;100868.38;5031736;28;20028;-71
2023/03/18 06:11:14;;;;;;;5.43;2.50;;;;;;;18.70;45.61;100863.94;5031694;28;20432;-70
2023/03/18 06:13:40;;;;;;;6.25;2.90;;;;;;;18.70;45.69;100862.13;5031720;28;20029;-70
2023/03/18 06:16:06;;;;;;;6.53;3.22;;;;;;;18.67;45.76;100852.69;5031610;28;20033;-71
2023/03/18 06:18:32;;;;;;;7.38;2.83;;;;;;;18.67;45.73;100860.59;5031848;28;20056;-70
2023/03/18 06:20:57;;;;;;;5.45;2.70;;;;;;;18.65;45.64;100859.03;5032186;28;20037;-69
2023/03/18 06:23:23;;;;;;;6.43;2.78;;;;;;;18.67;45.54;100865.88;5031486;28;20040;-70
2023/03/18 06:25:49;;;;;;;4.88;2.05;;;;;;;18.64;45.56;100855.59;5031653;28;20470;-71
2023/03/18 06:28:14;;;;;;;5.03;2.35;;;;;;;18.68;45.19;100859.63;5032008;28;20080;-68
2023/03/18 06:30:40;;;;;;;4.53;2.35;;;;;;;18.68;45.39;100859.63;5032052;28;20048;-69
2023/03/18 06:33:06;;;;;;;4.25;2.17;;;;;;;18.71;45.59;100865.59;5030160;28;20040;-71
2023/03/18 06:35:31;;;;;;;4.82;2.28;;;;;;;18.74;45.66;100866.19;5031625;28;20790;-69
2023/03/18 06:37:57;;;;;;;4.10;1.80;;;;;;;18.72;45.67;100868.13;5031899;28;20029;-70
2023/03/18 06:40:23;;;;;;;5.57;2.17;;;;;;;18.77;45.53;100880.94;5031189;28;20124;-68
2023/03/18 06:42:49;;;;;;;3.65;1.80;;;;;;;18.79;45.70;100892.22;5031766;28;21259;-70
2023/03/18 06:45:15;;;;;;;4.32;2.05;;;;;;;18.77;45.61;100884.44;5031494;28;20071;-71
2023/03/18 06:47:41;;;;;;;4.40;1.80;;;;;;;18.80;45.63;100883.31;5031144;28;20048;-70
2023/03/18 06:50:07;;;;;;;3.92;1.90;;;;;;;18.83;45.72;100886.56;5031798;28;20032;-70
2023/03/18 06:52:32;;;;;;;3.88;1.80;;;;;;;18.87;45.64;100891.59;5031144;28;20039;-70
2023/03/18 06:54:59;;;;;;;4.63;2.23;;;;;;;18.89;45.54;100890.50;5031700;28;20103;-70
2023/03/18 06:57:24;;;;;;;4.47;2.00;;;;;;;18.90;45.53;100897.47;5031267;28;20259;-69
2023/03/18 06:59:50;;;;;;;3.40;1.70;;;;;;;18.90;45.59;100892.19;5031185;28;20136;-69
2023/03/18 07:02:16;;;;;;;4.13;1.88;;;;;;;18.93;45.54;100899.88;5031461;28;20036;-70
2023/03/18 07:04:41;;;;;;;4.22;1.98;;;;;;;18.93;45.58;100899.00;5031393;28;20033;-70
2023/03/18 07:07:07;;;;;;;3.58;1.70;;;;;;;18.96;45.60;100902.25;5031118;28;20040;-70
2023/03/18 07:09:32;;;;;;;4.53;1.80;;;;;;;18.95;45.66;100902.38;5030535;28;20386;-71
2023/03/18 07:11:59;;;;;;;4.28;1.70;;;;;;;18.99;45.49;100909.91;5031038;28;20489;-71
2023/03/18 07:14:25;;;;;;;4.90;2.00;;;;;;;18.99;45.45;100909.06;5031454;28;20410;-70
2023/03/18 07:16:50;;;;;;;3.63;1.67;;;;;;;18.98;45.55;100912.69;5027248;28;20041;-70
2023/03/18 07:19:16;;;;;;;7.28;2.33;;;;;;;18.97;45.49;100911.81;5030544;28;20080;-70
2023/03/18 07:21:42;;;;;;;4.38;1.60;;;;;;;18.99;45.44;100917.84;5031101;28;20770;-70
2023/03/18 07:24:08;;;;;;;3.70;1.60;;;;;;;19.02;45.47;100922.00;5031326;28;20032;-70
2023/03/18 07:26:33;;;;;;;4.10;1.90;;;;;;;19.02;45.47;100922.00;5031288;28;20037;-70
2023/03/18 07:28:59;;;;;;;4.05;1.83;;;;;;;19.02;45.45;100922.00;5031155;28;20037;-70
2023/03/18 07:31:24;;;;;;;3.75;2.00;;;;;;;19.02;45.30;100922.84;5029928;28;20068;-70
2023/03/18 07:33:50;;;;;;;4.78;2.20;;;;;;;19.03;45.52;100921.88;5030620;28;20056;-70
2023/03/18 07:36:15;;;;;;;3.70;1.83;;;;;;;19.06;45.65;100920.78;5031066;28;20033;-70
2023/03/18 07:38:41;;;;;;;4.20;1.80;;;;;;;19.06;45.82;100927.88;5030980;28;20049;-71
2023/03/18 07:41:07;;;;;;;5.32;1.90;;;;;;;19.07;45.83;100933.03;5030188;28;20029;-69
2023/03/18 07:43:32;;;;;;;5.15;2.40;;;;;;;19.06;45.99;100938.44;5029803;28;20045;-69
2023/03/18 07:45:57;;;;;;;6.25;2.15;;;;;;;19.05;46.21;100940.25;5030352;28;20037;-68
2023/03/18 07:48:23;;;;;;;5.32;2.22;;;;;;;19.07;46.21;100945.41;5031072;28;20096;-68
2023/03/18 07:50:48;;;;;;;3.92;1.80;;;;;;;19.09;46.24;100952.25;5030390;28;20120;-68
2023/03/18 07:53:14;;;;;;;4.60;1.90;;;;;;;19.10;46.31;100948.63;5031007;28;20025;-68
2023/03/18 07:55:40;;;;;;;4.85;2.00;;;;;;;19.11;46.40;100952.13;5029194;28;20025;-68
2023/03/18 07:58:07;;;;;;;4.85;2.17;;;;;;;19.08;46.41;100942.63;5030917;28;20381;-70
2023/03/18 08:00:34;;;;;;;5.18;1.88;;;;;;;19.11;46.34;100946.81;5030636;28;20045;-69
2023/03/18 08:03:00;;;;;;;5.07;2.05;;;;;;;19.11;46.64;100946.81;5033826;28;20060;-71
2023/03/18 08:05:26;;;;;;;7.97;1.70;;;;;;;19.10;46.67;100938.03;5030508;28;20068;-69
2023/03/18 08:07:52;;;;;;;5.10;1.95;;;;;;;19.13;46.84;100936.97;5030384;28;20057;-70
2023/03/18 08:10:18;;;;;;;4.95;2.10;;;;;;;19.13;46.77;100931.69;5030454;28;20560;-68
2023/03/18 08:12:43;;;;;;;5.50;2.10;;;;;;;19.14;46.89;100926.25;5029544;28;20112;-69
2023/03/18 08:15:10;;;;;;;3.92;1.65;;;;;;;19.13;46.84;100923.75;5030301;28;20462;-71
2023/03/18 08:17:36;;;;;;;5.60;1.90;;;;;;;19.13;46.71;100929.03;5030834;28;20041;-69
2023/03/18 08:20:02;;;;;;;4.95;1.83;;;;;;;19.12;46.92;100928.22;5031794;28;20060;-67
2023/03/18 08:22:28;;;;;;;6.43;1.85;;;;;;;19.13;46.86;100924.59;5034161;28;20029;-69
2023/03/18 08:24:54;;;;;;;4.53;1.48;;;;;;;19.15;46.97;100932.38;5034001;28;20044;-68
2023/03/18 08:27:19;;;;;;;5.15;1.98;;;;;;;19.14;47.01;100930.72;5033488;28;20036;-69
2023/03/18 08:29:44;;;;;;;6.28;2.22;;;;;;;19.12;46.89;100932.63;5033763;28;20068;-68
2023/03/18 08:32:10;;;;;;;4.20;1.80;;;;;;;19.15;46.97;100942.94;5034304;28;20151;-68
2023/03/18 08:34:36;;;;;;;5.53;1.95;;;;;;;19.14;47.00;100936.84;5033379;28;20474;-69
2023/03/18 08:37:01;;;;;;;5.43;1.88;;;;;;;19.16;47.37;100942.00;5033752;28;20029;-68
2023/03/18 08:39:27;;;;;;;4.63;1.80;;;;;;;19.13;47.15;100939.59;5034337;28;20028;-70
2023/03/18 08:41:52;;;;;;;3.58;1.70;;;;;;;19.13;47.08;100940.44;5033201;28;20932;-69
2023/03/18 08:44:17;;;;;;;5.72;1.88;;;;;;;19.13;47.18;100944.88;5033508;28;20531;-69
2023/03/18 08:46:43;;;;;;;5.97;1.98;;;;;;;19.13;47.17;100945.72;5033192;28;20537;-70
2023/03/18 08:49:09;;;;;;;4.85;1.70;;;;;;;19.15;47.31;100949.09;5033896;28;20033;-69
2023/03/18 08:51:35;;;;;;;5.68;1.73;;;;;;;19.14;47.20;100949.22;5033686;28;20053;-70
2023/03/18 08:54:00;;;;;;;4.78;1.95;;;;;;;19.16;47.20;100956.03;5033466;28;20481;-70
2023/03/18 08:56:26;;;;;;;4.35;1.83;;;;;;;19.16;47.39;100955.19;5033161;28;20033;-70
2023/03/18 08:58:51;;;;;;;4.20;1.65;;;;;;;19.17;47.36;100954.25;5033693;28;20036;-71
2023/03/18 09:01:21;;;;;;;4.65;1.90;;;;;;;19.16;47.47;100949.91;5033592;28;20055;-70
2023/03/18 09:03:47;;;;;;;4.15;1.60;;;;;;;19.19;47.37;100954.94;5033387;28;20029;-69
2023/03/18 09:06:12;;;;;;;4.82;1.80;;;;;;;19.17;47.44;100948.97;5033666;28;20112;-70
2023/03/18 09:08:38;;;;;;;4.32;1.70;;;;;;;19.19;47.51;100960.22;5033547;28;20037;-70
2023/03/18 09:11:06;;;;;;;5.72;1.95;;;;;;;19.19;47.55;100962.88;5032996;28;20055;-71
2023/03/18 09:13:31;;;;;;;3.67;1.63;;;;;;;19.20;47.73;100972.44;5033250;28;20116;-73
2023/03/18 09:15:57;;;;;;;5.47;2.03;;;;;;;19.18;47.74;100961.19;5032907;28;20116;-71
2023/03/18 09:18:23;;;;;;;5.40;1.83;;;;;;;19.17;47.72;100960.34;5033187;28;20053;-72
2023/03/18 09:20:49;;;;;;;4.05;1.70;;;;;;;19.20;47.63;100953.94;5032993;28;20033;-71
2023/03/18 09:23:14;;;;;;;4.18;1.80;;;;;;;19.21;47.67;100960.94;5032782;28;20110;-66
2023/03/18 09:25:43;;;;;;;6.07;1.90;;;;;;;19.20;47.73;100956.59;5032718;28;20045;-69
2023/03/18 09:28:09;;;;;;;5.07;1.90;;;;;;;19.20;47.70;100957.47;5032902;28;20041;-69
2023/03/18 09:30:35;;;;;;;5.82;1.60;;;;;;;19.21;47.70;100964.41;5033409;28;20056;-70
2023/03/18 09:33:00;;;;;;;5.07;1.67;;;;;;;19.19;47.58;100957.59;5033144;28;20041;-69
2023/03/18 09:35:27;;;;;;;4.75;1.75;;;;;;;19.22;47.72;100970.53;5033350;28;20102;-69
2023/03/18 09:37:53;;;;;;;4.95;1.73;;;;;;;19.22;47.56;100962.63;5023846;28;20430;-69
2023/03/18 09:40:26;;;;;;;5.25;1.50;;;;;;;19.21;47.76;100959.09;5031718;28;20128;-70
2023/03/18 09:43:14;;;;;;;5.97;1.90;;;;;;;19.22;47.69;100959.97;5033667;28;20029;-72
2023/03/18 09:46:08;;;;;;;4.15;1.60;;;;;;;19.24;47.87;100958.03;5047522;28;20519;-70
2023/03/18 09:48:45;;;;;;;4.20;1.45;;;;;;;19.25;47.77;100964.13;5032992;28;20123;-70
2023/03/18 09:51:20;;;;;;;4.22;1.75;;;;;;;19.26;47.83;100957.91;5030872;28;20111;-69
2023/03/18 09:54:02;;;;;;;5.80;1.75;;;;;;;19.29;47.83;100957.66;5031783;28;20079;-69
2023/03/18 09:56:33;;;;;;;3.97;1.50;;;;;;;19.38;47.63;100960.34;5031946;28;20030;-70
2023/03/18 09:59:22;;;;;;;4.47;1.98;;;;;;;19.40;47.41;100950.47;5032784;28;20033;-67
2023/03/18 10:01:53;;;;;;;4.85;1.33;;;;;;;19.45;47.39;100954.53;5032148;28;20038;-70
2023/03/18 10:04:38;;;;;;;4.75;1.50;;;;;;;19.45;47.44;100957.19;5031212;28;20472;-69
2023/03/18 10:07:13;;;;;;;4.47;1.45;;;;;;;19.50;47.57;100963.75;5031284;28;20044;-69
2023/03/18 10:09:43;;;;;;;4.90;1.55;;;;;;;19.58;47.33;100963.09;5030794;28;20088;-66
2023/03/18 10:12:24;;;;;;;4.43;1.83;;;;;;;19.60;47.37;100958.53;5031077;28;20119;-68
2023/03/18 10:15:16;;;;;;;5.30;1.95;;;;;;;19.67;47.35;100958.81;5031286;28;20029;-68
2023/03/18 10:18:10;;;;;;;3.85;1.55;;;;;;;19.70;47.26;100962.03;5030627;28;20474;-72
2023/03/18 10:20:35;;;;;;;5.85;1.48;;;;;;;19.72;46.79;100962.72;5031179;28;20102;-72
2023/03/18 10:23:32;;;;;;;4.73;1.57;;;;;;;19.64;47.36;100953.81;5030648;28;20033;-72
2023/03/18 10:26:04;;;;;;;6.18;1.38;;;;;;;19.56;47.42;100971.16;5031195;28;20276;-69
2023/03/18 10:28:57;;;;;;;7.13;1.70;;;;;;;19.52;47.38;100971.56;5031125;28;20029;-73
2023/03/18 10:31:53;;;;;;;3.75;1.60;;;;;;;19.53;47.41;100970.56;5045733;28;20067;-70
2023/03/18 10:34:21;;;;;;;6.43;1.40;;;;;;;19.51;47.43;100964.59;5031885;28;20112;-71
2023/03/18 10:36:50;;;;;;;4.03;1.40;;;;;;;19.50;47.33;100961.13;5031828;28;20441;-72
2023/03/18 10:39:22;;;;;;;4.65;1.55;;;;;;;19.45;47.33;100955.38;5031548;28;20029;-73
2023/03/18 10:41:50;;;;;;;7.57;1.30;;;;;;;19.46;47.26;100961.50;5035639;28;20037;-73
2023/03/18 10:44:33;;;;;;;4.28;1.30;;;;;;;19.42;47.20;100952.16;5029888;28;20033;-72
2023/03/18 10:47:08;;;;;;;3.28;1.40;;;;;;;19.41;47.30;100953.97;5030973;28;20033;-72
2023/03/18 10:49:37;;;;;;;4.55;1.42;;;;;;;19.39;47.37;100951.44;5030956;28;20068;-72
2023/03/18 10:52:12;;;;;;;3.78;1.25;;;;;;;19.40;47.41;100949.63;5031550;28;20133;-71
2023/03/18 10:54:51;;;;;;;4.13;1.33;;;;;;;19.39;47.23;100953.25;5029116;28;20029;-71
2023/03/18 10:57:18;;;;;;;8.05;1.55;;;;;;;19.38;47.03;100944.47;5030533;28;20037;-72
2023/03/18 10:59:44;;;;;;;3.63;1.33;;;;;;;19.35;47.01;100947.38;5031198;28;20034;-71
2023/03/18 11:02:30;;;;;;;5.35;1.40;;;;;;;19.34;46.93;100956.31;5031198;28;20120;-72
2023/03/18 11:05:21;;;;;;;4.05;1.40;;;;;;;19.34;47.00;100956.31;5031263;28;20442;-71
2023/03/18 11:08:02;;;;;;;4.22;1.63;;;;;;;19.34;47.01;100964.22;5031767;28;20059;-73
2023/03/18 11:10:33;;;;;;;3.58;1.20;;;;;;;19.33;47.30;100962.53;5022336;28;20040;-71
2023/03/18 11:13:01;;;;;;;3.22;1.30;;;;;;;19.31;47.24;100950.41;5031560;28;20050;-70
2023/03/18 11:15:27;;;;;;;3.35;1.23;;;;;;;19.29;47.09;100947.91;5032210;28;20029;-70
2023/03/18 11:17:57;;;;;;;3.72;1.30;;;;;;;19.27;47.06;100949.84;5030786;28;20034;-72
2023/03/18 11:20:44;;;;;;;3.53;1.40;;;;;;;19.29;47.01;100957.66;5031030;28;20040;-70
2023/03/18 11:23:34;;;;;;;4.82;1.25;;;;;;;19.29;46.88;100957.66;5031533;28;20037;-70
2023/03/18 11:26:01;;;;;;;4.07;1.45;;;;;;;19.27;47.11;100963.06;5030777;28;20041;-70
2023/03/18 11:28:28;;;;;;;5.15;1.58;;;;;;;19.23;46.88;100966.09;5030828;28;20029;-69